Time;durP1;ratioP1;P1;durP2;ratioP2;P2;SDS_P1;SDS_P2;PMS_P1;PMS_P2;Temp;Humidity;BMP_temperature;BMP_pressure;BME280_temperature;BME280_humidity;BME280_pressure;Samples;Min_cycle;Max_cycle;Signal;HPM_P1;HPM_P2
2022/03/09 00:02:00;;;;;;;1.23;0.90;;;21.40;39.80;;;;;;5001178;28;20107;-63
2022/03/09 00:04:26;;;;;;;1.63;0.90;;;21.40;39.80;;;;;;5005497;28;20026;-66
2022/03/09 00:06:52;;;;;;;1.58;0.80;;;21.40;39.80;;;;;;5002266;28;20140;-63
2022/03/09 00:09:18;;;;;;;1.52;1.00;;;21.40;39.90;;;;;;5001741;28;20057;-63
2022/03/09 00:11:43;;;;;;;1.85;0.95;;;21.30;39.80;;;;;;5003195;28;20033;-63
2022/03/09 00:14:09;;;;;;;0.90;0.80;;;21.30;39.80;;;;;;5003386;28;20506;-66
2022/03/09 00:16:34;;;;;;;1.70;0.80;;;21.30;39.80;;;;;;5008574;28;20041;-63
2022/03/09 00:19:01;;;;;;;2.30;0.95;;;21.30;39.80;;;;;;5006365;28;20032;-64
2022/03/09 00:21:26;;;;;;;1.30;0.90;;;21.30;39.90;;;;;;5008810;28;20048;-66
2022/03/09 00:23:52;;;;;;;1.52;0.90;;;21.30;39.90;;;;;;5005058;28;20711;-66
2022/03/09 00:26:18;;;;;;;1.48;0.90;;;21.30;39.90;;;;;;5005897;28;20936;-65
2022/03/09 00:28:43;;;;;;;1.88;0.93;;;21.30;39.90;;;;;;5006353;28;20034;-63
2022/03/09 00:31:09;;;;;;;1.73;1.02;;;21.20;39.80;;;;;;5006521;28;20034;-62
2022/03/09 00:33:35;;;;;;;1.52;0.90;;;21.20;39.90;;;;;;5008951;28;20628;-65
2022/03/09 00:36:01;;;;;;;1.90;1.00;;;21.20;39.90;;;;;;5007284;28;20507;-64
2022/03/09 00:38:26;;;;;;;1.73;0.90;;;21.20;39.90;;;;;;5006551;28;20029;-65
2022/03/09 00:40:52;;;;;;;1.55;0.95;;;21.20;39.90;;;;;;5000989;28;20038;-63
2022/03/09 00:43:18;;;;;;;1.33;0.90;;;21.20;39.90;;;;;;5008282;28;20033;-62
2022/03/09 00:45:44;;;;;;;1.88;1.10;;;21.20;39.90;;;;;;5006050;28;20489;-63
2022/03/09 00:48:10;;;;;;;1.50;0.90;;;21.10;39.90;;;;;;5008227;28;20140;-65
2022/03/09 00:50:35;;;;;;;1.23;0.90;;;21.10;39.90;;;;;;5003047;28;21302;-66
2022/03/09 00:53:01;;;;;;;1.58;1.05;;;21.10;39.90;;;;;;5001242;28;20034;-63
2022/03/09 00:55:26;;;;;;;1.83;1.10;;;21.10;39.90;;;;;;5005103;28;20064;-63
2022/03/09 00:57:52;;;;;;;1.45;1.05;;;21.10;39.90;;;;;;5005779;28;20066;-63
2022/03/09 01:00:18;;;;;;;1.52;1.00;;;21.10;39.90;;;;;;5006115;28;20548;-65
2022/03/09 01:02:45;;;;;;;1.80;1.00;;;21.10;39.90;;;;;;5006979;28;20124;-65
2022/03/09 01:05:12;;;;;;;1.50;1.02;;;21.10;39.90;;;;;;4999249;28;20060;-63
2022/03/09 01:07:38;;;;;;;1.95;1.00;;;21.10;39.90;;;;;;5004392;28;20026;-63
2022/03/09 01:10:04;;;;;;;1.35;1.00;;;21.10;39.90;;;;;;5002804;28;20093;-63
2022/03/09 01:12:30;;;;;;;2.10;1.20;;;21.10;39.90;;;;;;5004603;28;20050;-65
2022/03/09 01:14:56;;;;;;;1.70;1.00;;;21.00;39.90;;;;;;5005503;28;20034;-65
2022/03/09 01:17:22;;;;;;;1.50;1.00;;;21.00;39.90;;;;;;5006476;28;20042;-65
2022/03/09 01:19:48;;;;;;;1.52;0.93;;;21.00;40.00;;;;;;5005142;28;20038;-66
2022/03/09 01:22:13;;;;;;;2.22;1.10;;;21.00;40.00;;;;;;5006957;28;20128;-63
2022/03/09 01:24:39;;;;;;;1.75;1.10;;;21.00;40.00;;;;;;5003277;28;20465;-65
2022/03/09 01:27:05;;;;;;;1.52;1.00;;;21.00;39.90;;;;;;5005416;28;20029;-63
2022/03/09 01:29:31;;;;;;;1.60;1.10;;;21.00;40.00;;;;;;5003543;28;20029;-64
2022/03/09 01:31:56;;;;;;;1.95;1.10;;;21.00;40.00;;;;;;5005433;28;20054;-63
2022/03/09 01:34:22;;;;;;;1.88;1.10;;;20.90;39.90;;;;;;5004737;28;20045;-65
2022/03/09 01:36:48;;;;;;;1.45;1.00;;;21.00;40.00;;;;;;5006498;28;20513;-63
2022/03/09 01:39:13;;;;;;;1.65;0.98;;;20.90;40.00;;;;;;5002859;28;20041;-64
2022/03/09 01:41:39;;;;;;;1.48;1.00;;;20.90;40.50;;;;;;5005421;28;20036;-65
2022/03/09 01:44:05;;;;;;;1.88;1.20;;;20.90;40.00;;;;;;5004916;28;20052;-65
2022/03/09 01:46:31;;;;;;;1.95;1.00;;;20.90;40.00;;;;;;5006849;28;20491;-64
2022/03/09 01:48:56;;;;;;;1.80;1.10;;;20.90;40.00;;;;;;5003419;28;20038;-62
2022/03/09 01:51:23;;;;;;;1.77;1.10;;;20.90;40.00;;;;;;5005439;28;20070;-65
2022/03/09 01:53:49;;;;;;;1.95;1.00;;;20.90;40.00;;;;;;5002862;28;20053;-63
2022/03/09 01:56:15;;;;;;;1.73;1.00;;;20.90;40.00;;;;;;5003980;28;20072;-63
2022/03/09 01:58:41;;;;;;;1.63;0.90;;;20.90;40.00;;;;;;5002492;28;20121;-62
2022/03/09 02:01:06;;;;;;;1.40;0.90;;;20.80;40.00;;;;;;5004364;28;20038;-65
2022/03/09 02:03:32;;;;;;;1.30;0.90;;;20.80;40.00;;;;;;5004627;28;20180;-65
2022/03/09 02:05:59;;;;;;;1.25;1.02;;;20.80;40.00;;;;;;4997499;28;20084;-65
2022/03/09 02:11:09;;;;;;;1.65;1.10;;;20.80;40.10;;;;;;4999630;28;20513;-63
2022/03/09 02:13:38;;;;;;;1.45;1.00;;;20.80;40.10;;;;;;5004321;28;20026;-65
2022/03/09 02:16:04;;;;;;;2.47;1.00;;;20.80;40.10;;;;;;5002057;28;20084;-64
2022/03/09 02:18:30;;;;;;;1.75;1.00;;;20.70;40.00;;;;;;5004832;28;20038;-64
2022/03/09 02:21:00;;;;;;;1.65;1.10;;;20.70;40.10;;;;;;5003678;28;20045;-63
2022/03/09 02:23:26;;;;;;;1.58;1.00;;;20.70;40.10;;;;;;5003231;28;20030;-65
2022/03/09 02:25:51;;;;;;;1.00;0.80;;;20.70;40.10;;;;;;5002350;28;20022;-65
2022/03/09 02:28:17;;;;;;;2.10;1.10;;;20.70;40.10;;;;;;5005923;28;20128;-63
2022/03/09 02:30:43;;;;;;;1.55;1.10;;;20.70;40.10;;;;;;5000540;28;20514;-66
2022/03/09 02:33:08;;;;;;;1.50;1.00;;;20.70;40.10;;;;;;5005308;28;20490;-66
2022/03/09 02:35:34;;;;;;;1.70;0.93;;;20.70;40.10;;;;;;5004134;28;20034;-66
2022/03/09 02:38:00;;;;;;;1.17;0.98;;;20.70;40.10;;;;;;5001680;28;20374;-64
2022/03/09 02:40:25;;;;;;;1.30;0.90;;;20.70;40.10;;;;;;4999452;28;20026;-64
2022/03/09 02:42:51;;;;;;;1.20;1.00;;;20.70;40.10;;;;;;5001323;28;20030;-65
2022/03/09 02:45:17;;;;;;;1.80;1.10;;;20.70;40.10;;;;;;5004422;28;20026;-65
2022/03/09 02:47:44;;;;;;;1.90;1.10;;;20.70;40.10;;;;;;5004229;28;20025;-63
2022/03/09 02:50:11;;;;;;;1.33;0.90;;;20.60;40.10;;;;;;5003119;28;20022;-64
2022/03/09 02:52:38;;;;;;;1.60;1.05;;;20.70;40.10;;;;;;5002492;28;20030;-62
2022/03/09 02:55:05;;;;;;;1.67;1.10;;;20.60;40.10;;;;;;5001057;28;20026;-65
2022/03/09 02:57:31;;;;;;;1.65;1.08;;;20.60;40.20;;;;;;5001815;28;20065;-65
2022/03/09 02:59:56;;;;;;;1.45;1.00;;;20.60;40.10;;;;;;5003008;28;20062;-65
2022/03/09 03:02:22;;;;;;;1.83;1.13;;;20.60;40.10;;;;;;5003592;28;20038;-62
2022/03/09 03:04:48;;;;;;;1.25;0.80;;;20.60;40.10;;;;;;5004450;28;20033;-64
2022/03/09 03:07:13;;;;;;;1.83;1.02;;;20.60;40.10;;;;;;5006024;28;20026;-65
2022/03/09 03:09:39;;;;;;;1.52;1.05;;;20.60;40.20;;;;;;5008823;28;20026;-63
2022/03/09 03:12:05;;;;;;;1.90;1.02;;;20.60;40.20;;;;;;5015565;28;20064;-65
2022/03/09 03:14:30;;;;;;;1.23;0.90;;;20.60;40.20;;;;;;5003797;28;20129;-62
2022/03/09 03:16:56;;;;;;;1.67;1.00;;;20.60;40.20;;;;;;5002159;28;20025;-63
2022/03/09 03:19:22;;;;;;;1.52;1.02;;;20.50;40.20;;;;;;5002973;28;20129;-62
2022/03/09 03:21:47;;;;;;;1.40;1.00;;;20.60;40.20;;;;;;5003237;28;20163;-62
2022/03/09 03:24:13;;;;;;;1.70;1.10;;;20.50;40.20;;;;;;5002137;28;20160;-65
2022/03/09 03:26:38;;;;;;;1.23;0.90;;;20.50;40.20;;;;;;5001611;28;20037;-62
2022/03/09 03:29:04;;;;;;;1.25;0.90;;;20.50;40.20;;;;;;5003530;28;20030;-64
2022/03/09 03:31:30;;;;;;;1.55;1.00;;;20.50;40.20;;;;;;5002300;28;20129;-63
2022/03/09 03:33:56;;;;;;;1.60;1.02;;;20.50;40.20;;;;;;5004578;28;20030;-64
2022/03/09 03:36:22;;;;;;;1.65;1.10;;;20.50;40.80;;;;;;5003430;28;20550;-62
2022/03/09 03:38:48;;;;;;;1.80;1.00;;;20.50;40.20;;;;;;5004337;28;20045;-65
2022/03/09 03:41:13;;;;;;;1.33;0.90;;;20.50;40.20;;;;;;5001519;28;20727;-65
2022/03/09 03:43:39;;;;;;;1.80;1.00;;;20.50;40.20;;;;;;5004838;28;20509;-64
2022/03/09 03:46:05;;;;;;;1.33;0.90;;;20.50;40.30;;;;;;5003840;28;20034;-64
2022/03/09 03:48:30;;;;;;;1.40;1.02;;;20.50;40.30;;;;;;5001011;28;20041;-64
2022/03/09 03:50:56;;;;;;;1.60;1.00;;;20.40;40.20;;;;;;5007021;28;20087;-65
2022/03/09 03:53:22;;;;;;;1.50;1.00;;;20.40;40.20;;;;;;5005661;28;20038;-64
2022/03/09 03:55:47;;;;;;;1.45;1.10;;;20.40;40.30;;;;;;5006720;28;20069;-62
2022/03/09 03:58:13;;;;;;;1.40;0.95;;;20.40;40.30;;;;;;5006188;28;20034;-62
2022/03/09 04:00:39;;;;;;;2.42;1.00;;;20.50;40.30;;;;;;5021733;28;20050;-65
2022/03/09 04:03:04;;;;;;;1.80;0.93;;;20.40;40.30;;;;;;5006957;28;20037;-63
2022/03/09 04:05:30;;;;;;;1.88;1.10;;;20.40;40.30;;;;;;5006991;28;20056;-61
2022/03/09 04:07:56;;;;;;;1.70;1.10;;;20.40;40.30;;;;;;5006511;28;20125;-65
2022/03/09 04:10:22;;;;;;;1.25;0.90;;;20.40;40.80;;;;;;5005597;28;20036;-64
2022/03/09 04:12:47;;;;;;;1.60;0.95;;;20.40;40.30;;;;;;5006642;28;20113;-62
2022/03/09 04:15:13;;;;;;;1.35;1.00;;;20.40;40.30;;;;;;5007165;28;20140;-62
2022/03/09 04:17:41;;;;;;;1.13;0.80;;;20.40;40.30;;;;;;5022174;28;20025;-64
2022/03/09 04:20:07;;;;;;;1.35;0.82;;;20.40;40.30;;;;;;5001805;28;20057;-64
2022/03/09 04:22:33;;;;;;;1.33;0.85;;;20.40;40.40;;;;;;5005258;28;20034;-62
2022/03/09 04:24:59;;;;;;;1.40;1.00;;;20.40;40.30;;;;;;5006267;28;20025;-64
2022/03/09 04:27:24;;;;;;;1.20;1.00;;;20.40;40.30;;;;;;5007119;28;20669;-62
2022/03/09 04:29:50;;;;;;;1.48;1.00;;;20.40;40.40;;;;;;5006512;28;20029;-64
2022/03/09 04:32:16;;;;;;;1.25;0.85;;;20.30;40.30;;;;;;5002914;28;20038;-63
2022/03/09 04:34:41;;;;;;;1.70;1.00;;;20.30;40.40;;;;;;5006547;28;20026;-61
2022/03/09 04:37:07;;;;;;;1.27;0.90;;;20.40;40.40;;;;;;5005276;28;20568;-65
2022/03/09 04:39:32;;;;;;;1.50;0.90;;;20.40;40.40;;;;;;5003602;28;20064;-64
2022/03/09 04:41:58;;;;;;;1.10;0.80;;;20.30;40.40;;;;;;5004001;28;20602;-62
2022/03/09 04:44:24;;;;;;;1.40;0.90;;;20.30;40.40;;;;;;5003156;28;20109;-64
2022/03/09 04:46:49;;;;;;;1.50;0.85;;;20.30;40.30;;;;;;5005108;28;20375;-64
2022/03/09 04:49:15;;;;;;;1.48;0.90;;;20.40;40.30;;;;;;5006099;28;20060;-63
2022/03/09 04:51:41;;;;;;;1.67;0.95;;;20.30;40.20;;;;;;5006127;28;20050;-62
2022/03/09 04:54:06;;;;;;;1.25;0.85;;;20.30;40.20;;;;;;5003199;28;20033;-61
2022/03/09 04:56:32;;;;;;;1.45;0.80;;;20.30;40.30;;;;;;5004016;28;20513;-61
2022/03/09 04:58:58;;;;;;;1.80;1.00;;;20.30;40.30;;;;;;5005069;28;20111;-62
2022/03/09 05:01:23;;;;;;;1.23;0.90;;;20.30;40.30;;;;;;5002985;28;20756;-63
2022/03/09 05:03:49;;;;;;;1.33;1.00;;;20.30;40.30;;;;;;5004542;28;20092;-62
2022/03/09 05:06:16;;;;;;;1.45;0.93;;;20.30;40.30;;;;;;5006510;28;20058;-63
2022/03/09 05:08:42;;;;;;;1.55;0.90;;;20.30;40.30;;;;;;5004800;28;20119;-63
2022/03/09 05:11:07;;;;;;;2.40;1.20;;;20.30;40.40;;;;;;5002452;28;20029;-64
2022/03/09 05:13:33;;;;;;;2.47;1.10;;;20.30;40.40;;;;;;5004224;28;20033;-62
2022/03/09 05:15:59;;;;;;;1.10;0.90;;;20.30;40.40;;;;;;5003081;28;20032;-63
2022/03/09 05:18:25;;;;;;;1.60;1.00;;;20.30;40.40;;;;;;5006057;28;20036;-64
2022/03/09 05:20:50;;;;;;;1.27;0.90;;;20.30;40.40;;;;;;5004143;28;20034;-62
2022/03/09 05:23:16;;;;;;;1.27;0.90;;;20.30;40.40;;;;;;5001127;28;20093;-61
2022/03/09 05:25:41;;;;;;;1.23;0.80;;;20.30;40.50;;;;;;5005219;28;20951;-64
2022/03/09 05:28:07;;;;;;;1.13;0.75;;;20.30;40.50;;;;;;5003631;28;20037;-64
2022/03/09 05:30:33;;;;;;;1.63;0.85;;;20.30;40.60;;;;;;5003838;28;20121;-62
2022/03/09 05:32:58;;;;;;;1.48;0.90;;;20.30;40.50;;;;;;5005410;28;20057;-63
2022/03/09 05:35:24;;;;;;;1.67;0.93;;;20.30;40.50;;;;;;5005128;28;20524;-64
2022/03/09 05:37:49;;;;;;;1.25;0.82;;;20.30;40.50;;;;;;5003877;28;20087;-63
2022/03/09 05:40:15;;;;;;;1.75;1.00;;;20.30;40.50;;;;;;5003232;28;20419;-62
2022/03/09 05:42:43;;;;;;;2.38;1.00;;;20.30;40.50;;;;;;5004100;28;20057;-62
2022/03/09 05:45:09;;;;;;;2.05;0.90;;;20.30;40.60;;;;;;5005224;28;20140;-64
2022/03/09 05:47:35;;;;;;;2.08;1.00;;;20.20;40.50;;;;;;5005387;28;20025;-64
2022/03/09 05:50:00;;;;;;;1.88;1.00;;;20.30;40.60;;;;;;5001876;28;20386;-64
2022/03/09 05:52:26;;;;;;;1.77;0.90;;;20.30;40.60;;;;;;5002803;28;20042;-62
2022/03/09 05:54:52;;;;;;;1.70;1.10;;;20.20;40.60;;;;;;5001679;28;20034;-64
2022/03/09 05:57:22;;;;;;;1.80;0.93;;;20.30;40.60;;;;;;5000243;28;20021;-62
2022/03/09 05:59:48;;;;;;;2.50;1.00;;;20.20;40.60;;;;;;5004243;28;20053;-64
2022/03/09 06:02:14;;;;;;;1.70;1.00;;;20.20;40.60;;;;;;5002937;28;20450;-61
2022/03/09 06:04:40;;;;;;;2.05;1.08;;;20.20;40.60;;;;;;5003203;28;20054;-63
2022/03/09 06:07:06;;;;;;;1.70;0.98;;;20.20;40.70;;;;;;5000178;28;20084;-64
2022/03/09 06:09:32;;;;;;;2.35;1.10;;;20.30;40.70;;;;;;5004053;28;20029;-64
2022/03/09 06:11:57;;;;;;;1.60;1.00;;;20.20;40.70;;;;;;5000870;28;20667;-63
2022/03/09 06:14:23;;;;;;;1.88;1.10;;;20.20;40.70;;;;;;5009351;28;20537;-64
2022/03/09 06:16:49;;;;;;;1.63;0.90;;;20.20;40.70;;;;;;5002223;28;20033;-63
2022/03/09 06:19:16;;;;;;;2.05;1.20;;;20.20;40.80;;;;;;5003654;28;20029;-64
2022/03/09 06:21:42;;;;;;;2.85;1.13;;;20.20;40.80;;;;;;5002006;28;20153;-64
2022/03/09 06:24:07;;;;;;;1.90;1.10;;;20.20;40.80;;;;;;5001226;28;20030;-64
2022/03/09 06:26:33;;;;;;;1.45;0.98;;;20.20;40.90;;;;;;5004164;28;20121;-64
2022/03/09 06:28:59;;;;;;;2.15;1.10;;;20.20;41.00;;;;;;4996790;28;20029;-63
2022/03/09 06:31:24;;;;;;;2.47;1.17;;;20.20;41.00;;;;;;5006250;28;20041;-62
2022/03/09 06:33:50;;;;;;;2.20;1.08;;;20.20;41.80;;;;;;5015990;28;20033;-63
2022/03/09 06:36:16;;;;;;;2.00;1.10;;;20.40;41.90;;;;;;5020072;28;20034;-61
2022/03/09 06:38:42;;;;;;;1.88;1.02;;;20.60;41.90;;;;;;5010212;28;20030;-65
2022/03/09 06:41:08;;;;;;;1.58;0.90;;;20.90;42.40;;;;;;5012321;28;20029;-64
2022/03/09 06:43:34;;;;;;;1.33;0.80;;;21.20;42.00;;;;;;5016628;28;20112;-63
2022/03/09 06:46:00;;;;;;;3.25;1.30;;;21.30;42.30;;;;;;5012440;28;20351;-63
2022/03/09 06:48:25;;;;;;;2.10;1.10;;;21.80;41.80;;;;;;5013794;28;20172;-61
2022/03/09 06:50:51;;;;;;;2.45;1.10;;;22.00;41.80;;;;;;5033981;28;20165;-62
2022/03/09 06:53:17;;;;;;;3.38;1.30;;;22.40;41.10;;;;;;5017771;28;20275;-64
2022/03/09 06:55:42;;;;;;;1.90;1.10;;;22.60;40.80;;;;;;5014163;28;20037;-65
2022/03/09 06:58:08;;;;;;;1.88;1.02;;;22.80;40.70;;;;;;5017630;28;20055;-65
2022/03/09 07:00:36;;;;;;;1.30;0.85;;;22.90;40.70;;;;;;5022254;28;20555;-63
2022/03/09 07:03:02;;;;;;;1.42;0.90;;;22.90;40.50;;;;;;5015929;28;20060;-63
2022/03/09 07:05:28;;;;;;;1.75;0.90;;;22.80;40.50;;;;;;5012531;28;20386;-63
2022/03/09 07:07:53;;;;;;;1.67;0.80;;;22.80;40.60;;;;;;5017024;28;20100;-63
2022/03/09 07:10:19;;;;;;;1.38;0.88;;;22.70;40.70;;;;;;5016555;28;20026;-65
2022/03/09 07:12:46;;;;;;;1.83;0.90;;;22.60;40.80;;;;;;5015826;28;20045;-65
2022/03/09 07:15:13;;;;;;;1.25;0.80;;;22.60;40.80;;;;;;5012873;28;20117;-65
2022/03/09 07:17:39;;;;;;;1.17;0.90;;;22.60;40.90;;;;;;5014642;28;20037;-66
2022/03/09 07:20:07;;;;;;;1.58;0.93;;;22.60;41.00;;;;;;5016041;28;20036;-65
2022/03/09 07:22:33;;;;;;;1.42;0.95;;;22.60;41.00;;;;;;5016947;28;20422;-66
2022/03/09 07:24:59;;;;;;;1.60;0.80;;;22.60;41.10;;;;;;5016094;28;20030;-63
2022/03/09 07:27:24;;;;;;;1.60;0.80;;;22.60;41.10;;;;;;5016316;28;20056;-65
2022/03/09 07:29:50;;;;;;;1.38;0.80;;;22.70;41.20;;;;;;5016069;28;20132;-64
2022/03/09 07:32:16;;;;;;;1.30;0.90;;;22.70;41.10;;;;;;5014757;28;20738;-65
2022/03/09 07:34:42;;;;;;;1.73;0.90;;;22.70;41.30;;;;;;5003844;28;20049;-64
2022/03/09 07:37:08;;;;;;;1.23;0.80;;;22.70;41.80;;;;;;5010399;28;20160;-62
2022/03/09 07:39:35;;;;;;;0.80;0.70;;;22.70;41.50;;;;;;5006317;28;20032;-65
2022/03/09 07:42:01;;;;;;;1.05;0.80;;;22.80;41.50;;;;;;4999431;28;20033;-65
2022/03/09 07:44:27;;;;;;;1.45;0.90;;;22.70;41.80;;;;;;5007895;28;20301;-66
2022/03/09 07:46:53;;;;;;;1.23;0.80;;;22.80;41.90;;;;;;5006532;28;20530;-65
2022/03/09 07:49:19;;;;;;;1.42;0.80;;;22.80;41.90;;;;;;5020813;28;20066;-62
2022/03/09 07:51:45;;;;;;;1.13;0.73;;;22.80;42.20;;;;;;5006912;28;20014;-65
2022/03/09 07:54:11;;;;;;;1.67;0.90;;;22.80;42.40;;;;;;5006462;28;20134;-62
2022/03/09 07:56:38;;;;;;;1.60;0.90;;;22.90;42.50;;;;;;5004859;28;20045;-65
2022/03/09 07:59:05;;;;;;;1.25;0.85;;;22.90;42.80;;;;;;5010610;28;20477;-65
2022/03/09 08:01:31;;;;;;;0.75;0.63;;;22.90;42.90;;;;;;5005956;28;20052;-65
2022/03/09 08:03:56;;;;;;;1.00;0.80;;;22.90;42.90;;;;;;4999571;28;20025;-63
2022/03/09 08:06:22;;;;;;;1.20;0.80;;;22.90;43.10;;;;;;5003811;28;20108;-65
2022/03/09 08:08:48;;;;;;;1.40;0.88;;;23.00;43.10;;;;;;5000578;28;20125;-62
2022/03/09 08:11:14;;;;;;;1.00;0.70;;;23.00;43.30;;;;;;5005013;28;20576;-62
2022/03/09 08:13:40;;;;;;;0.88;0.65;;;23.00;43.40;;;;;;5003810;28;20026;-63
2022/03/09 08:16:06;;;;;;;1.00;0.73;;;23.10;43.60;;;;;;5004647;28;20128;-62
2022/03/09 08:18:32;;;;;;;1.13;0.73;;;23.10;43.90;;;;;;5003840;28;20080;-65
2022/03/09 08:20:58;;;;;;;1.25;0.70;;;23.10;43.80;;;;;;5002701;28;20041;-64
2022/03/09 08:23:23;;;;;;;0.68;0.65;;;23.10;43.80;;;;;;5002464;28;20474;-64
2022/03/09 08:25:49;;;;;;;0.82;0.65;;;23.10;43.80;;;;;;5012396;28;20026;-64
2022/03/09 08:28:16;;;;;;;1.50;0.80;;;23.20;43.70;;;;;;5014447;28;20401;-64
2022/03/09 08:30:41;;;;;;;0.70;0.60;;;23.20;43.90;;;;;;5012342;28;20045;-64
2022/03/09 08:33:08;;;;;;;0.80;0.55;;;23.20;43.80;;;;;;5009921;28;20573;-62
2022/03/09 08:35:33;;;;;;;0.70;0.60;;;23.20;44.00;;;;;;5010738;28;20100;-63
2022/03/09 08:37:59;;;;;;;1.10;0.70;;;23.30;44.30;;;;;;5010947;28;20473;-66
2022/03/09 08:40:25;;;;;;;0.73;0.60;;;23.30;44.80;;;;;;5006659;28;20037;-65
2022/03/09 08:42:50;;;;;;;0.75;0.60;;;23.40;45.00;;;;;;5007883;28;20339;-62
2022/03/09 08:45:16;;;;;;;0.77;0.70;;;23.40;45.10;;;;;;5011496;28;20168;-62
2022/03/09 08:47:42;;;;;;;0.93;0.70;;;23.40;45.10;;;;;;5010048;28;20021;-65
2022/03/09 08:50:09;;;;;;;0.52;0.52;;;23.40;45.10;;;;;;5011554;28;20033;-63
2022/03/09 08:52:34;;;;;;;0.63;0.60;;;23.50;45.10;;;;;;5018816;28;20025;-62
2022/03/09 08:55:00;;;;;;;0.63;0.60;;;23.50;45.00;;;;;;5013513;28;20509;-62
2022/03/09 08:57:26;;;;;;;1.83;1.20;;;23.50;44.90;;;;;;5003476;28;20457;-62
2022/03/09 08:59:51;;;;;;;0.75;0.60;;;23.50;45.20;;;;;;5006038;28;20121;-62
2022/03/09 09:02:17;;;;;;;0.90;0.70;;;23.60;45.10;;;;;;5006485;28;20045;-64
2022/03/09 09:04:42;;;;;;;0.63;0.60;;;23.60;45.20;;;;;;5004197;28;20091;-64
2022/03/09 09:07:08;;;;;;;1.10;0.63;;;23.70;45.10;;;;;;5005177;28;20205;-62
2022/03/09 09:09:34;;;;;;;0.80;0.70;;;23.70;45.10;;;;;;5005617;28;20022;-63
2022/03/09 09:12:01;;;;;;;1.08;0.65;;;23.70;45.10;;;;;;5002857;28;20643;-63
2022/03/09 09:14:27;;;;;;;0.70;0.55;;;23.70;45.10;;;;;;5004945;28;20113;-65
2022/03/09 09:16:54;;;;;;;0.55;0.55;;;23.80;45.20;;;;;;5007282;28;20507;-64
2022/03/09 09:19:20;;;;;;;0.75;0.70;;;23.80;45.30;;;;;;5006716;28;20026;-62
2022/03/09 09:21:46;;;;;;;0.63;0.63;;;23.90;45.30;;;;;;5005205;28;20053;-65
2022/03/09 09:24:13;;;;;;;2.45;0.70;;;23.90;45.40;;;;;;5003907;28;20450;-63
2022/03/09 09:26:38;;;;;;;0.98;0.60;;;23.90;45.40;;;;;;5004087;28;20036;-63
2022/03/09 09:29:04;;;;;;;0.60;0.60;;;23.90;45.40;;;;;;5006151;28;20121;-66
2022/03/09 09:31:30;;;;;;;1.30;0.60;;;23.90;45.70;;;;;;5004850;28;20092;-66
2022/03/09 09:33:55;;;;;;;1.05;0.80;;;24.00;45.70;;;;;;5006670;28;20036;-63
2022/03/09 09:36:21;;;;;;;0.68;0.50;;;24.00;45.60;;;;;;5005024;28;20033;-64
2022/03/09 09:38:46;;;;;;;0.70;0.70;;;24.10;45.70;;;;;;5003529;28;20196;-63
2022/03/09 09:41:16;;;;;;;0.88;0.70;;;24.10;45.80;;;;;;5003122;28;20053;-64
2022/03/09 09:43:43;;;;;;;0.50;0.50;;;24.10;45.80;;;;;;5003937;28;20018;-63
2022/03/09 09:46:12;;;;;;;0.50;0.50;;;24.10;45.80;;;;;;5003523;28;20034;-63
2022/03/09 09:48:38;;;;;;;1.20;0.60;;;24.20;45.90;;;;;;5004027;28;20455;-65
2022/03/09 09:51:05;;;;;;;0.85;0.60;;;24.20;45.80;;;;;;5004063;28;20053;-65
2022/03/09 09:53:33;;;;;;;0.85;0.70;;;24.20;45.40;;;;;;5004451;28;20391;-62
2022/03/09 09:55:59;;;;;;;1.00;0.75;;;24.20;44.00;;;;;;5003673;28;20022;-63
2022/03/09 09:58:25;;;;;;;1.77;0.95;;;24.10;42.80;;;;;;5005715;28;20042;-63
2022/03/09 10:00:51;;;;;;;2.63;1.23;;;24.10;40.70;;;;;;5000365;28;20064;-65
2022/03/09 10:03:16;;;;;;;2.20;1.30;;;24.00;39.30;;;;;;5004954;28;20022;-62
2022/03/09 10:05:42;;;;;;;2.03;1.17;;;23.90;38.90;;;;;;5005068;28;20092;-64
2022/03/09 10:08:14;;;;;;;1.88;1.20;;;23.90;39.20;;;;;;5003572;28;20030;-62
2022/03/09 10:10:43;;;;;;;1.83;1.02;;;23.80;38.90;;;;;;5003616;28;20029;-65
2022/03/09 10:13:35;;;;;;;3.30;1.33;;;23.80;38.70;;;;;;5001843;28;20026;-63
2022/03/09 10:16:16;;;;;;;1.88;1.20;;;23.80;38.70;;;;;;5005917;28;20038;-62
2022/03/09 10:18:48;;;;;;;2.40;1.50;;;23.70;38.60;;;;;;5003335;28;20030;-65
2022/03/09 10:21:20;;;;;;;2.17;1.27;;;23.70;38.70;;;;;;4997415;28;20121;-63
2022/03/09 10:24:01;;;;;;;2.05;1.30;;;23.70;38.70;;;;;;5011876;28;20103;-63
2022/03/09 10:26:34;;;;;;;2.13;1.40;;;23.70;38.70;;;;;;5002425;28;20072;-63
2022/03/09 10:29:14;;;;;;;1.88;1.20;;;23.60;38.70;;;;;;5004623;28;20074;-65
2022/03/09 10:31:42;;;;;;;2.17;1.33;;;23.60;38.70;;;;;;5003480;28;20045;-66
2022/03/09 10:34:20;;;;;;;1.75;1.10;;;23.60;38.80;;;;;;5004554;28;20140;-66
2022/03/09 10:37:00;;;;;;;1.92;1.20;;;23.60;38.80;;;;;;5004307;28;20030;-65
2022/03/09 10:39:31;;;;;;;2.00;1.25;;;23.50;39.40;;;;;;5002099;28;20068;-64
2022/03/09 10:42:01;;;;;;;2.25;1.20;;;23.50;38.90;;;;;;5001965;28;20025;-66
2022/03/09 10:44:45;;;;;;;;;;;23.50;39.00;;;;;;5002410;28;20014;-66
2022/03/09 10:47:27;;;;;;;2.08;1.20;;;23.50;39.00;;;;;;5004497;28;19914;-64
2022/03/09 10:49:52;;;;;;;2.47;1.30;;;23.50;39.00;;;;;;5001868;28;20034;-66
2022/03/09 10:52:18;;;;;;;1.88;1.17;;;23.50;39.10;;;;;;5002523;28;20037;-66
2022/03/09 10:54:43;;;;;;;1.70;1.23;;;23.50;39.10;;;;;;5001108;28;20041;-66
2022/03/09 10:57:12;;;;;;;2.40;1.40;;;23.40;39.10;;;;;;4993751;28;20030;-65
2022/03/09 10:59:47;;;;;;;2.47;1.10;;;23.40;39.20;;;;;;4995921;28;20037;-66
2022/03/09 11:02:14;;;;;;;1.98;1.10;;;23.40;39.20;;;;;;5002545;28;20061;-63
2022/03/09 11:04:40;;;;;;;1.92;1.27;;;23.40;39.20;;;;;;5016462;28;20018;-65
2022/03/09 11:07:06;;;;;;;2.20;1.20;;;23.40;39.20;;;;;;5000581;28;20411;-66
2022/03/09 11:09:36;;;;;;;2.40;1.30;;;23.40;39.20;;;;;;4998358;28;20026;-66
2022/03/09 11:12:02;;;;;;;2.13;1.25;;;23.40;39.20;;;;;;4997652;28;20895;-66
2022/03/09 11:14:29;;;;;;;1.75;1.10;;;23.40;39.30;;;;;;5000356;28;20038;-64
2022/03/09 11:17:00;;;;;;;1.88;1.10;;;23.40;39.30;;;;;;5001537;28;20446;-66
2022/03/09 11:19:27;;;;;;;2.25;1.30;;;23.40;39.40;;;;;;5001240;28;20423;-66
2022/03/09 11:21:53;;;;;;;1.65;1.20;;;23.30;39.20;;;;;;5001831;28;20030;-68
2022/03/09 11:24:20;;;;;;;2.00;1.20;;;23.30;39.70;;;;;;5000548;28;20421;-65
2022/03/09 11:26:56;;;;;;;2.00;1.17;;;23.30;39.30;;;;;;5002147;28;20025;-68
2022/03/09 11:29:36;;;;;;;1.80;1.20;;;23.30;39.30;;;;;;5002767;28;20034;-65
2022/03/09 11:32:07;;;;;;;1.88;1.05;;;23.30;39.30;;;;;;5002292;28;20037;-67
2022/03/09 11:34:43;;;;;;;2.38;1.33;;;23.30;39.40;;;;;;5003261;28;20046;-66
2022/03/09 11:37:18;;;;;;;1.80;1.23;;;23.30;39.30;;;;;;5003626;28;20108;-66
2022/03/09 11:40:06;;;;;;;2.30;1.20;;;23.30;39.30;;;;;;5002638;28;20098;-68
2022/03/09 11:42:34;;;;;;;2.00;1.25;;;23.20;39.20;;;;;;5002091;28;20540;-66
2022/03/09 11:45:15;;;;;;;2.10;1.30;;;23.20;39.10;;;;;;4996440;28;20101;-67
2022/03/09 11:48:02;;;;;;;2.28;1.40;;;23.20;39.00;;;;;;5004242;28;20109;-66
2022/03/09 11:50:29;;;;;;;2.25;1.40;;;23.20;38.80;;;;;;5002061;28;20065;-67
2022/03/09 11:52:55;;;;;;;2.70;1.40;;;23.20;38.80;;;;;;5001821;28;20607;-67
2022/03/09 11:55:21;;;;;;;2.05;1.50;;;23.20;38.70;;;;;;4998890;28;20030;-68
2022/03/09 11:57:49;;;;;;;2.83;1.65;;;23.20;38.80;;;;;;5000659;28;20037;-67
2022/03/09 12:00:19;;;;;;;2.87;1.50;;;23.20;38.70;;;;;;4998034;28;20104;-67
2022/03/09 12:02:44;;;;;;;;;;;23.20;38.50;;;;;;5001077;28;20042;-65
2022/03/09 12:05:31;;;;;;;2.42;1.30;;;23.20;38.50;;;;;;5001217;28;19914;-67
2022/03/09 12:07:58;;;;;;;2.88;1.50;;;23.20;38.50;;;;;;4999798;28;20088;-68
2022/03/09 12:10:46;;;;;;;2.30;1.30;;;23.20;38.60;;;;;;4999038;28;20018;-66
2022/03/09 12:13:14;;;;;;;2.45;1.60;;;23.20;38.50;;;;;;5001028;28;20494;-66
2022/03/09 12:16:04;;;;;;;2.50;1.30;;;23.20;38.50;;;;;;5005780;28;20161;-68
2022/03/09 12:19:06;;;;;;;2.45;1.60;;;23.20;38.60;;;;;;5002302;28;20636;-67
2022/03/09 12:21:32;;;;;;;2.13;1.40;;;23.20;38.70;;;;;;5003123;28;20041;-68
2022/03/09 12:24:04;;;;;;;2.08;1.30;;;23.20;38.80;;;;;;5001527;28;20022;-66
2022/03/09 12:26:50;;;;;;;1.90;1.20;;;23.20;38.80;;;;;;5001530;28;20454;-66
2022/03/09 12:29:21;;;;;;;1.98;1.23;;;23.20;38.80;;;;;;4996045;28;20036;-68
2022/03/09 12:32:02;;;;;;;1.63;1.20;;;23.20;38.80;;;;;;5016728;28;20472;-68
2022/03/09 12:34:35;;;;;;;2.97;1.40;;;23.20;38.70;;;;;;5002402;28;20029;-66
2022/03/09 12:37:03;;;;;;;2.03;1.30;;;23.20;38.70;;;;;;5000701;28;20042;-67
2022/03/09 12:39:29;;;;;;;2.38;1.40;;;23.20;38.70;;;;;;5001121;28;20502;-65
2022/03/09 12:41:57;;;;;;;2.03;1.30;;;23.20;38.50;;;;;;5001795;28;20149;-68
2022/03/09 12:44:24;;;;;;;2.13;1.30;;;23.20;38.50;;;;;;4998374;28;20030;-65
2022/03/09 12:46:52;;;;;;;2.03;1.40;;;23.20;38.50;;;;;;5000598;28;20026;-68
2022/03/09 12:49:20;;;;;;;2.40;1.40;;;23.20;38.10;;;;;;5001240;28;20019;-68
2022/03/09 12:51:57;;;;;;;1.95;1.30;;;23.20;38.10;;;;;;4996533;28;20458;-69